sensor_id;sensor_type;location;lat;lon;timestamp;temperature;humidity
33863;DHT22;20158;51.436;-2.742;2024-02-26T00:02:29;8.70;66.90
33863;DHT22;20158;51.436;-2.742;2024-02-26T00:05:13;8.70;66.90
33863;DHT22;20158;51.436;-2.742;2024-02-26T00:07:59;8.70;66.90
33863;DHT22;20158;51.436;-2.742;2024-02-26T00:10:43;8.60;66.70
33863;DHT22;20158;51.436;-2.742;2024-02-26T00:13:28;8.60;66.70
33863;DHT22;20158;51.436;-2.742;2024-02-26T00:16:12;8.60;66.60
33863;DHT22;20158;51.436;-2.742;2024-02-26T00:18:57;8.60;66.60
33863;DHT22;20158;51.436;-2.742;2024-02-26T00:21:42;8.70;66.80
33863;DHT22;20158;51.436;-2.742;2024-02-26T00:24:27;8.60;66.60
33863;DHT22;20158;51.436;-2.742;2024-02-26T00:27:11;8.60;66.60
33863;DHT22;20158;51.436;-2.742;2024-02-26T00:29:56;8.60;66.50
33863;DHT22;20158;51.436;-2.742;2024-02-26T00:32:40;8.60;66.50
33863;DHT22;20158;51.436;-2.742;2024-02-26T00:35:25;8.60;66.50
33863;DHT22;20158;51.436;-2.742;2024-02-26T00:38:10;8.60;66.50
33863;DHT22;20158;51.436;-2.742;2024-02-26T00:40:54;8.60;66.50
33863;DHT22;20158;51.436;-2.742;2024-02-26T00:43:40;8.60;66.50
33863;DHT22;20158;51.436;-2.742;2024-02-26T00:46:26;8.60;66.40
33863;DHT22;20158;51.436;-2.742;2024-02-26T00:49:11;8.50;66.20
33863;DHT22;20158;51.436;-2.742;2024-02-26T00:51:55;8.60;66.40
33863;DHT22;20158;51.436;-2.742;2024-02-26T00:54:40;8.60;66.30
33863;DHT22;20158;51.436;-2.742;2024-02-26T00:57:24;8.60;66.30
33863;DHT22;20158;51.436;-2.742;2024-02-26T01:00:09;8.60;66.30
33863;DHT22;20158;51.436;-2.742;2024-02-26T01:02:54;8.60;66.30
33863;DHT22;20158;51.436;-2.742;2024-02-26T01:05:38;8.50;66.10
33863;DHT22;20158;51.436;-2.742;2024-02-26T01:08:24;8.50;66.10
33863;DHT22;20158;51.436;-2.742;2024-02-26T01:11:08;8.50;66.10
33863;DHT22;20158;51.436;-2.742;2024-02-26T01:13:53;8.50;66.00
33863;DHT22;20158;51.436;-2.742;2024-02-26T01:16:40;8.50;66.00
33863;DHT22;20158;51.436;-2.742;2024-02-26T01:19:24;8.40;65.80
33863;DHT22;20158;51.436;-2.742;2024-02-26T01:22:10;8.40;65.80
33863;DHT22;20158;51.436;-2.742;2024-02-26T01:24:55;8.40;65.80
33863;DHT22;20158;51.436;-2.742;2024-02-26T01:27:41;8.40;65.80
33863;DHT22;20158;51.436;-2.742;2024-02-26T01:30:27;8.40;65.80
33863;DHT22;20158;51.436;-2.742;2024-02-26T01:33:12;8.40;65.80
33863;DHT22;20158;51.436;-2.742;2024-02-26T01:35:57;8.40;65.70
33863;DHT22;20158;51.436;-2.742;2024-02-26T01:38:41;8.40;65.70
33863;DHT22;20158;51.436;-2.742;2024-02-26T01:41:26;8.40;65.70
33863;DHT22;20158;51.436;-2.742;2024-02-26T01:44:12;8.40;65.70
33863;DHT22;20158;51.436;-2.742;2024-02-26T01:46:57;8.40;65.70
33863;DHT22;20158;51.436;-2.742;2024-02-26T01:49:42;8.40;65.60
33863;DHT22;20158;51.436;-2.742;2024-02-26T01:52:27;8.40;65.60
33863;DHT22;20158;51.436;-2.742;2024-02-26T01:55:12;8.40;65.60
33863;DHT22;20158;51.436;-2.742;2024-02-26T01:57:58;8.40;65.50
33863;DHT22;20158;51.436;-2.742;2024-02-26T02:00:43;8.40;65.50
33863;DHT22;20158;51.436;-2.742;2024-02-26T02:03:28;8.40;65.50
33863;DHT22;20158;51.436;-2.742;2024-02-26T02:06:13;8.40;65.50
33863;DHT22;20158;51.436;-2.742;2024-02-26T02:08:57;8.40;65.50
33863;DHT22;20158;51.436;-2.742;2024-02-26T02:11:42;8.40;65.40
33863;DHT22;20158;51.436;-2.742;2024-02-26T02:14:27;8.40;65.40
33863;DHT22;20158;51.436;-2.742;2024-02-26T02:17:11;8.40;65.40
33863;DHT22;20158;51.436;-2.742;2024-02-26T02:19:56;8.40;65.30
33863;DHT22;20158;51.436;-2.742;2024-02-26T02:22:41;8.40;65.30
33863;DHT22;20158;51.436;-2.742;2024-02-26T02:25:25;8.40;65.30
33863;DHT22;20158;51.436;-2.742;2024-02-26T02:28:10;8.40;65.30
33863;DHT22;20158;51.436;-2.742;2024-02-26T02:30:55;8.40;65.30
33863;DHT22;20158;51.436;-2.742;2024-02-26T02:33:40;8.40;65.20
33863;DHT22;20158;51.436;-2.742;2024-02-26T02:36:25;8.40;65.20
33863;DHT22;20158;51.436;-2.742;2024-02-26T02:39:09;8.40;65.20
33863;DHT22;20158;51.436;-2.742;2024-02-26T02:41:53;8.40;65.10
33863;DHT22;20158;51.436;-2.742;2024-02-26T02:44:38;8.30;64.90
33863;DHT22;20158;51.436;-2.742;2024-02-26T02:47:22;8.40;65.10
33863;DHT22;20158;51.436;-2.742;2024-02-26T02:50:07;8.40;65.00
33863;DHT22;20158;51.436;-2.742;2024-02-26T02:52:51;8.30;64.80
33863;DHT22;20158;51.436;-2.742;2024-02-26T02:55:35;8.30;64.70
33863;DHT22;20158;51.436;-2.742;2024-02-26T02:58:20;8.30;64.70
33863;DHT22;20158;51.436;-2.742;2024-02-26T03:01:04;8.30;64.70
33863;DHT22;20158;51.436;-2.742;2024-02-26T03:03:49;8.30;64.70
33863;DHT22;20158;51.436;-2.742;2024-02-26T03:06:34;8.30;64.70
33863;DHT22;20158;51.436;-2.742;2024-02-26T03:09:18;8.30;64.60
33863;DHT22;20158;51.436;-2.742;2024-02-26T03:12:03;8.30;64.60
33863;DHT22;20158;51.436;-2.742;2024-02-26T03:14:47;8.30;64.50
33863;DHT22;20158;51.436;-2.742;2024-02-26T03:17:32;8.30;64.50
33863;DHT22;20158;51.436;-2.742;2024-02-26T03:20:17;8.30;64.50
33863;DHT22;20158;51.436;-2.742;2024-02-26T03:23:04;8.30;64.40
33863;DHT22;20158;51.436;-2.742;2024-02-26T03:25:48;8.30;64.40
33863;DHT22;20158;51.436;-2.742;2024-02-26T03:28:33;8.40;64.60
33863;DHT22;20158;51.436;-2.742;2024-02-26T03:31:18;8.30;64.30
33863;DHT22;20158;51.436;-2.742;2024-02-26T03:34:03;8.30;64.30
33863;DHT22;20158;51.436;-2.742;2024-02-26T03:36:47;8.30;64.20
33863;DHT22;20158;51.436;-2.742;2024-02-26T03:39:32;8.30;64.20
33863;DHT22;20158;51.436;-2.742;2024-02-26T03:42:17;8.30;64.70
33863;DHT22;20158;51.436;-2.742;2024-02-26T03:45:01;8.30;64.10
33863;DHT22;20158;51.436;-2.742;2024-02-26T03:47:46;8.30;64.10
33863;DHT22;20158;51.436;-2.742;2024-02-26T03:50:30;8.30;64.00
33863;DHT22;20158;51.436;-2.742;2024-02-26T03:53:15;8.30;64.10
33863;DHT22;20158;51.436;-2.742;2024-02-26T03:56:04;8.30;64.00
33863;DHT22;20158;51.436;-2.742;2024-02-26T03:58:48;8.20;63.80
33863;DHT22;20158;51.436;-2.742;2024-02-26T04:01:33;8.20;63.80
33863;DHT22;20158;51.436;-2.742;2024-02-26T04:04:18;8.20;63.70
33863;DHT22;20158;51.436;-2.742;2024-02-26T04:07:03;8.20;63.70
33863;DHT22;20158;51.436;-2.742;2024-02-26T04:09:47;8.20;63.70
33863;DHT22;20158;51.436;-2.742;2024-02-26T04:12:32;8.20;63.60
33863;DHT22;20158;51.436;-2.742;2024-02-26T04:15:17;8.20;63.60
33863;DHT22;20158;51.436;-2.742;2024-02-26T04:18:02;8.20;63.60
33863;DHT22;20158;51.436;-2.742;2024-02-26T04:20:47;8.10;63.40
33863;DHT22;20158;51.436;-2.742;2024-02-26T04:23:31;8.10;63.40
33863;DHT22;20158;51.436;-2.742;2024-02-26T04:26:16;8.10;63.40
33863;DHT22;20158;51.436;-2.742;2024-02-26T04:29:00;8.10;63.40
33863;DHT22;20158;51.436;-2.742;2024-02-26T04:31:45;8.10;63.40
33863;DHT22;20158;51.436;-2.742;2024-02-26T04:34:31;8.10;63.40
33863;DHT22;20158;51.436;-2.742;2024-02-26T04:37:16;8.10;63.40
33863;DHT22;20158;51.436;-2.742;2024-02-26T04:40:00;8.00;63.20
33863;DHT22;20158;51.436;-2.742;2024-02-26T04:42:45;8.00;63.20
33863;DHT22;20158;51.436;-2.742;2024-02-26T04:45:31;8.00;63.20
33863;DHT22;20158;51.436;-2.742;2024-02-26T04:48:15;8.00;63.10
33863;DHT22;20158;51.436;-2.742;2024-02-26T04:51:01;8.00;63.20
33863;DHT22;20158;51.436;-2.742;2024-02-26T04:53:45;8.00;63.10
33863;DHT22;20158;51.436;-2.742;2024-02-26T04:56:29;8.00;63.10
33863;DHT22;20158;51.436;-2.742;2024-02-26T04:59:14;8.00;63.10
33863;DHT22;20158;51.436;-2.742;2024-02-26T05:01:58;8.00;63.10
33863;DHT22;20158;51.436;-2.742;2024-02-26T05:04:43;8.00;63.10
33863;DHT22;20158;51.436;-2.742;2024-02-26T05:07:28;8.00;63.10
33863;DHT22;20158;51.436;-2.742;2024-02-26T05:10:13;8.00;63.10
33863;DHT22;20158;51.436;-2.742;2024-02-26T05:12:57;8.00;63.10
33863;DHT22;20158;51.436;-2.742;2024-02-26T05:15:42;8.00;63.10
33863;DHT22;20158;51.436;-2.742;2024-02-26T05:18:27;8.00;63.10
33863;DHT22;20158;51.436;-2.742;2024-02-26T05:21:11;8.00;63.10
33863;DHT22;20158;51.436;-2.742;2024-02-26T05:23:56;8.00;63.00
33863;DHT22;20158;51.436;-2.742;2024-02-26T05:26:41;8.00;63.00
33863;DHT22;20158;51.436;-2.742;2024-02-26T05:29:25;8.00;63.00
33863;DHT22;20158;51.436;-2.742;2024-02-26T05:32:09;8.00;63.00
33863;DHT22;20158;51.436;-2.742;2024-02-26T05:34:54;7.90;62.80
33863;DHT22;20158;51.436;-2.742;2024-02-26T05:37:39;7.90;62.80
33863;DHT22;20158;51.436;-2.742;2024-02-26T05:40:23;8.00;63.00
33863;DHT22;20158;51.436;-2.742;2024-02-26T05:43:08;8.00;63.00
33863;DHT22;20158;51.436;-2.742;2024-02-26T05:45:53;8.00;63.00
33863;DHT22;20158;51.436;-2.742;2024-02-26T05:48:37;8.00;62.90
33863;DHT22;20158;51.436;-2.742;2024-02-26T05:51:22;8.00;62.90
33863;DHT22;20158;51.436;-2.742;2024-02-26T05:54:07;8.00;62.90
33863;DHT22;20158;51.436;-2.742;2024-02-26T05:56:52;8.00;62.90
33863;DHT22;20158;51.436;-2.742;2024-02-26T05:59:36;8.00;62.80
33863;DHT22;20158;51.436;-2.742;2024-02-26T06:02:21;8.00;62.80
33863;DHT22;20158;51.436;-2.742;2024-02-26T06:05:06;8.00;62.80
33863;DHT22;20158;51.436;-2.742;2024-02-26T06:07:52;8.00;62.80
33863;DHT22;20158;51.436;-2.742;2024-02-26T06:10:36;8.00;62.80
33863;DHT22;20158;51.436;-2.742;2024-02-26T06:13:21;8.00;62.70
33863;DHT22;20158;51.436;-2.742;2024-02-26T06:16:08;8.00;62.70
33863;DHT22;20158;51.436;-2.742;2024-02-26T06:18:53;8.00;62.70
33863;DHT22;20158;51.436;-2.742;2024-02-26T06:21:37;8.00;62.70
33863;DHT22;20158;51.436;-2.742;2024-02-26T06:24:22;8.00;62.70
33863;DHT22;20158;51.436;-2.742;2024-02-26T06:27:07;8.00;62.70
33863;DHT22;20158;51.436;-2.742;2024-02-26T06:29:52;8.00;62.60
33863;DHT22;20158;51.436;-2.742;2024-02-26T06:32:37;8.00;62.60
33863;DHT22;20158;51.436;-2.742;2024-02-26T06:35:22;8.00;62.60
33863;DHT22;20158;51.436;-2.742;2024-02-26T06:38:06;8.00;62.60
33863;DHT22;20158;51.436;-2.742;2024-02-26T06:40:52;8.00;62.60
33863;DHT22;20158;51.436;-2.742;2024-02-26T06:43:36;8.10;62.80
33863;DHT22;20158;51.436;-2.742;2024-02-26T06:46:21;8.00;62.60
33863;DHT22;20158;51.436;-2.742;2024-02-26T06:49:06;8.00;62.50
33863;DHT22;20158;51.436;-2.742;2024-02-26T06:51:51;8.00;62.70
33863;DHT22;20158;51.436;-2.742;2024-02-26T06:54:35;8.10;63.10
33863;DHT22;20158;51.436;-2.742;2024-02-26T06:57:20;8.20;63.20
33863;DHT22;20158;51.436;-2.742;2024-02-26T07:00:05;8.20;63.30
33863;DHT22;20158;51.436;-2.742;2024-02-26T07:02:49;8.20;63.30
33863;DHT22;20158;51.436;-2.742;2024-02-26T07:05:34;8.20;63.20
33863;DHT22;20158;51.436;-2.742;2024-02-26T07:08:19;8.30;63.40
33863;DHT22;20158;51.436;-2.742;2024-02-26T07:11:07;8.30;63.50
33863;DHT22;20158;51.436;-2.742;2024-02-26T07:13:51;8.30;63.70
33863;DHT22;20158;51.436;-2.742;2024-02-26T07:16:36;8.30;63.70
33863;DHT22;20158;51.436;-2.742;2024-02-26T07:19:20;8.30;63.70
33863;DHT22;20158;51.436;-2.742;2024-02-26T07:22:05;8.30;63.80
33863;DHT22;20158;51.436;-2.742;2024-02-26T07:24:49;8.40;64.00
33863;DHT22;20158;51.436;-2.742;2024-02-26T07:27:34;8.30;63.80
33863;DHT22;20158;51.436;-2.742;2024-02-26T07:30:19;8.30;63.80
33863;DHT22;20158;51.436;-2.742;2024-02-26T07:33:04;8.40;64.00
33863;DHT22;20158;51.436;-2.742;2024-02-26T07:35:48;8.40;63.90
33863;DHT22;20158;51.436;-2.742;2024-02-26T07:38:33;8.40;64.00
33863;DHT22;20158;51.436;-2.742;2024-02-26T07:41:18;8.40;63.90
33863;DHT22;20158;51.436;-2.742;2024-02-26T07:44:02;8.40;63.90
33863;DHT22;20158;51.436;-2.742;2024-02-26T07:46:47;8.40;63.90
33863;DHT22;20158;51.436;-2.742;2024-02-26T07:49:31;8.40;63.80
33863;DHT22;20158;51.436;-2.742;2024-02-26T07:52:16;8.40;63.80
33863;DHT22;20158;51.436;-2.742;2024-02-26T07:55:00;8.40;63.80
33863;DHT22;20158;51.436;-2.742;2024-02-26T07:57:45;8.40;63.80
33863;DHT22;20158;51.436;-2.742;2024-02-26T08:00:30;8.40;63.70
33863;DHT22;20158;51.436;-2.742;2024-02-26T08:03:14;8.40;63.60
33863;DHT22;20158;51.436;-2.742;2024-02-26T08:06:00;8.40;63.50
33863;DHT22;20158;51.436;-2.742;2024-02-26T08:08:44;8.40;63.50
33863;DHT22;20158;51.436;-2.742;2024-02-26T08:11:29;8.50;63.60
33863;DHT22;20158;51.436;-2.742;2024-02-26T08:14:14;8.50;63.50
33863;DHT22;20158;51.436;-2.742;2024-02-26T08:16:58;8.50;63.40
33863;DHT22;20158;51.436;-2.742;2024-02-26T08:19:43;8.50;63.40
33863;DHT22;20158;51.436;-2.742;2024-02-26T08:22:27;8.50;63.30
33863;DHT22;20158;51.436;-2.742;2024-02-26T08:25:12;8.60;63.40
33863;DHT22;20158;51.436;-2.742;2024-02-26T08:27:57;8.60;63.30
33863;DHT22;20158;51.436;-2.742;2024-02-26T08:30:42;8.60;63.20
33863;DHT22;20158;51.436;-2.742;2024-02-26T08:33:26;8.70;63.30
33863;DHT22;20158;51.436;-2.742;2024-02-26T08:36:11;8.70;63.20
33863;DHT22;20158;51.436;-2.742;2024-02-26T08:38:56;8.80;63.30
33863;DHT22;20158;51.436;-2.742;2024-02-26T08:41:40;8.70;63.00
33863;DHT22;20158;51.436;-2.742;2024-02-26T08:44:25;8.80;63.10
33863;DHT22;20158;51.436;-2.742;2024-02-26T08:47:10;8.90;63.20
33863;DHT22;20158;51.436;-2.742;2024-02-26T08:49:55;8.90;63.00
33863;DHT22;20158;51.436;-2.742;2024-02-26T08:52:40;9.00;63.00
33863;DHT22;20158;51.436;-2.742;2024-02-26T08:55:24;9.00;62.90
33863;DHT22;20158;51.436;-2.742;2024-02-26T08:58:09;9.00;62.80
33863;DHT22;20158;51.436;-2.742;2024-02-26T09:00:54;9.10;62.90
33863;DHT22;20158;51.436;-2.742;2024-02-26T09:03:39;9.20;62.90
33863;DHT22;20158;51.436;-2.742;2024-02-26T09:06:24;9.20;62.90
33863;DHT22;20158;51.436;-2.742;2024-02-26T09:09:09;9.20;62.70
33863;DHT22;20158;51.436;-2.742;2024-02-26T09:11:54;9.30;62.80
33863;DHT22;20158;51.436;-2.742;2024-02-26T09:14:39;9.40;62.90
33863;DHT22;20158;51.436;-2.742;2024-02-26T09:17:24;9.40;62.70
33863;DHT22;20158;51.436;-2.742;2024-02-26T09:20:09;9.50;62.70
33863;DHT22;20158;51.436;-2.742;2024-02-26T09:22:54;9.60;62.80
33863;DHT22;20158;51.436;-2.742;2024-02-26T09:25:38;9.60;62.60
33863;DHT22;20158;51.436;-2.742;2024-02-26T09:28:22;9.70;62.70
33863;DHT22;20158;51.436;-2.742;2024-02-26T09:31:07;9.80;62.70
33863;DHT22;20158;51.436;-2.742;2024-02-26T09:33:51;9.80;62.60
33863;DHT22;20158;51.436;-2.742;2024-02-26T09:36:36;9.80;62.50
33863;DHT22;20158;51.436;-2.742;2024-02-26T09:39:22;9.90;62.60
33863;DHT22;20158;51.436;-2.742;2024-02-26T09:42:06;9.90;62.40
33863;DHT22;20158;51.436;-2.742;2024-02-26T09:44:54;10.00;62.50
33863;DHT22;20158;51.436;-2.742;2024-02-26T09:47:41;10.00;62.40
33863;DHT22;20158;51.436;-2.742;2024-02-26T09:50:26;10.10;62.50
33863;DHT22;20158;51.436;-2.742;2024-02-26T09:53:12;10.10;62.30
33863;DHT22;20158;51.436;-2.742;2024-02-26T09:55:59;10.20;62.30
33863;DHT22;20158;51.436;-2.742;2024-02-26T09:58:44;10.30;62.40
33863;DHT22;20158;51.436;-2.742;2024-02-26T10:01:33;10.40;62.30
33863;DHT22;20158;51.436;-2.742;2024-02-26T10:04:20;10.50;62.20
33863;DHT22;20158;51.436;-2.742;2024-02-26T10:07:13;10.60;62.20
33863;DHT22;20158;51.436;-2.742;2024-02-26T10:09:58;10.70;62.10
33863;DHT22;20158;51.436;-2.742;2024-02-26T10:12:42;10.80;62.10
33863;DHT22;20158;51.436;-2.742;2024-02-26T10:15:27;10.80;61.90
33863;DHT22;20158;51.436;-2.742;2024-02-26T10:18:12;10.90;61.90
33863;DHT22;20158;51.436;-2.742;2024-02-26T10:21:01;11.00;61.90
33863;DHT22;20158;51.436;-2.742;2024-02-26T10:23:46;11.10;61.90
33863;DHT22;20158;51.436;-2.742;2024-02-26T10:26:31;11.10;61.70
33863;DHT22;20158;51.436;-2.742;2024-02-26T10:29:16;11.20;61.70
33863;DHT22;20158;51.436;-2.742;2024-02-26T10:32:01;11.20;61.60
33863;DHT22;20158;51.436;-2.742;2024-02-26T10:34:45;11.30;61.60
33863;DHT22;20158;51.436;-2.742;2024-02-26T10:37:30;11.40;61.70
33863;DHT22;20158;51.436;-2.742;2024-02-26T10:40:15;11.40;61.40
33863;DHT22;20158;51.436;-2.742;2024-02-26T10:43:00;11.50;61.40
33863;DHT22;20158;51.436;-2.742;2024-02-26T10:45:45;11.60;61.40
33863;DHT22;20158;51.436;-2.742;2024-02-26T10:48:31;11.70;61.40
33863;DHT22;20158;51.436;-2.742;2024-02-26T10:51:16;11.70;61.20
33863;DHT22;20158;51.436;-2.742;2024-02-26T10:54:02;11.80;61.70
33863;DHT22;20158;51.436;-2.742;2024-02-26T10:56:51;11.90;61.10
33863;DHT22;20158;51.436;-2.742;2024-02-26T10:59:39;12.00;61.10
33863;DHT22;20158;51.436;-2.742;2024-02-26T11:02:25;12.10;61.00
33863;DHT22;20158;51.436;-2.742;2024-02-26T11:05:11;12.10;60.80
33863;DHT22;20158;51.436;-2.742;2024-02-26T11:07:56;12.20;60.80
33863;DHT22;20158;51.436;-2.742;2024-02-26T11:10:42;12.30;60.80
33863;DHT22;20158;51.436;-2.742;2024-02-26T11:13:30;12.30;60.60
33863;DHT22;20158;51.436;-2.742;2024-02-26T11:16:22;12.40;60.50
33863;DHT22;20158;51.436;-2.742;2024-02-26T11:19:09;12.50;60.50
33863;DHT22;20158;51.436;-2.742;2024-02-26T11:21:54;12.60;60.40
33863;DHT22;20158;51.436;-2.742;2024-02-26T11:24:38;12.70;60.30
33863;DHT22;20158;51.436;-2.742;2024-02-26T11:27:29;12.70;60.10
33863;DHT22;20158;51.436;-2.742;2024-02-26T11:30:15;12.90;60.20
33863;DHT22;20158;51.436;-2.742;2024-02-26T11:33:02;13.00;60.10
33863;DHT22;20158;51.436;-2.742;2024-02-26T11:35:47;13.00;59.90
33863;DHT22;20158;51.436;-2.742;2024-02-26T11:38:33;13.10;59.90
33863;DHT22;20158;51.436;-2.742;2024-02-26T11:41:18;13.10;59.60
33863;DHT22;20158;51.436;-2.742;2024-02-26T11:44:03;13.20;59.60
33863;DHT22;20158;51.436;-2.742;2024-02-26T11:46:50;13.20;59.40
33863;DHT22;20158;51.436;-2.742;2024-02-26T11:49:34;13.30;59.40
33863;DHT22;20158;51.436;-2.742;2024-02-26T11:52:20;13.30;59.20
33863;DHT22;20158;51.436;-2.742;2024-02-26T11:55:04;13.30;59.00
33863;DHT22;20158;51.436;-2.742;2024-02-26T11:57:49;13.30;59.00
33863;DHT22;20158;51.436;-2.742;2024-02-26T12:00:34;13.20;58.80
33863;DHT22;20158;51.436;-2.742;2024-02-26T12:03:19;13.20;58.80
33863;DHT22;20158;51.436;-2.742;2024-02-26T12:06:04;13.20;58.80
33863;DHT22;20158;51.436;-2.742;2024-02-26T12:08:49;13.20;58.80
33863;DHT22;20158;51.436;-2.742;2024-02-26T12:11:34;13.10;58.50
33863;DHT22;20158;51.436;-2.742;2024-02-26T12:14:25;13.20;58.60
33863;DHT22;20158;51.436;-2.742;2024-02-26T12:17:20;13.20;58.40
33863;DHT22;20158;51.436;-2.742;2024-02-26T12:20:10;13.30;58.40
33863;DHT22;20158;51.436;-2.742;2024-02-26T12:22:56;13.30;58.30
33863;DHT22;20158;51.436;-2.742;2024-02-26T12:25:40;13.30;58.10
33863;DHT22;20158;51.436;-2.742;2024-02-26T12:28:29;13.40;58.10
33863;DHT22;20158;51.436;-2.742;2024-02-26T12:31:14;13.50;58.00
33863;DHT22;20158;51.436;-2.742;2024-02-26T12:34:00;13.60;58.00
33863;DHT22;20158;51.436;-2.742;2024-02-26T12:36:44;13.60;57.80
33863;DHT22;20158;51.436;-2.742;2024-02-26T12:39:29;13.60;57.60
33863;DHT22;20158;51.436;-2.742;2024-02-26T12:42:14;13.60;57.60
33863;DHT22;20158;51.436;-2.742;2024-02-26T12:44:59;13.60;57.50
33863;DHT22;20158;51.436;-2.742;2024-02-26T12:47:45;13.70;57.60
33863;DHT22;20158;51.436;-2.742;2024-02-26T12:50:30;13.80;57.60
33863;DHT22;20158;51.436;-2.742;2024-02-26T12:53:16;13.80;57.50
33863;DHT22;20158;51.436;-2.742;2024-02-26T12:56:02;13.80;57.30
33863;DHT22;20158;51.436;-2.742;2024-02-26T12:58:48;13.80;57.20
33863;DHT22;20158;51.436;-2.742;2024-02-26T13:01:34;13.80;57.10
33863;DHT22;20158;51.436;-2.742;2024-02-26T13:04:19;13.80;57.10
33863;DHT22;20158;51.436;-2.742;2024-02-26T13:07:04;13.90;57.20
33863;DHT22;20158;51.436;-2.742;2024-02-26T13:09:50;13.90;57.10
33863;DHT22;20158;51.436;-2.742;2024-02-26T13:12:35;14.00;57.10
33863;DHT22;20158;51.436;-2.742;2024-02-26T13:15:21;14.00;56.90
33863;DHT22;20158;51.436;-2.742;2024-02-26T13:18:11;14.10;57.00
33863;DHT22;20158;51.436;-2.742;2024-02-26T13:23:55;14.20;56.70
33863;DHT22;20158;51.436;-2.742;2024-02-26T13:26:40;14.30;56.70
33863;DHT22;20158;51.436;-2.742;2024-02-26T13:29:25;14.30;56.40
33863;DHT22;20158;51.436;-2.742;2024-02-26T13:32:10;14.30;56.30
33863;DHT22;20158;51.436;-2.742;2024-02-26T13:35:10;14.30;56.30
33863;DHT22;20158;51.436;-2.742;2024-02-26T13:37:56;14.30;56.10
33863;DHT22;20158;51.436;-2.742;2024-02-26T13:40:40;14.40;56.40
33863;DHT22;20158;51.436;-2.742;2024-02-26T13:43:25;14.40;56.20
33863;DHT22;20158;51.436;-2.742;2024-02-26T13:46:10;14.50;56.10
33863;DHT22;20158;51.436;-2.742;2024-02-26T13:48:54;14.40;55.80
33863;DHT22;20158;51.436;-2.742;2024-02-26T13:51:40;14.40;55.70
33863;DHT22;20158;51.436;-2.742;2024-02-26T13:54:24;14.40;55.70
33863;DHT22;20158;51.436;-2.742;2024-02-26T13:57:09;14.50;55.80
33863;DHT22;20158;51.436;-2.742;2024-02-26T13:59:55;14.60;55.80
33863;DHT22;20158;51.436;-2.742;2024-02-26T14:02:39;14.70;55.70
33863;DHT22;20158;51.436;-2.742;2024-02-26T14:05:24;14.80;55.60
33863;DHT22;20158;51.436;-2.742;2024-02-26T14:08:08;14.80;55.30
33863;DHT22;20158;51.436;-2.742;2024-02-26T14:10:53;14.90;55.30
33863;DHT22;20158;51.436;-2.742;2024-02-26T14:13:37;14.90;55.30
33863;DHT22;20158;51.436;-2.742;2024-02-26T14:16:22;14.90;55.20
33863;DHT22;20158;51.436;-2.742;2024-02-26T14:19:07;14.90;55.10
33863;DHT22;20158;51.436;-2.742;2024-02-26T14:21:52;14.90;55.00
33863;DHT22;20158;51.436;-2.742;2024-02-26T14:24:36;14.90;54.90
33863;DHT22;20158;51.436;-2.742;2024-02-26T14:27:21;14.90;54.90
33863;DHT22;20158;51.436;-2.742;2024-02-26T14:30:06;14.90;54.90
33863;DHT22;20158;51.436;-2.742;2024-02-26T14:32:51;14.90;54.80
33863;DHT22;20158;51.436;-2.742;2024-02-26T14:35:36;14.90;54.60
33863;DHT22;20158;51.436;-2.742;2024-02-26T14:38:20;14.90;54.60
33863;DHT22;20158;51.436;-2.742;2024-02-26T14:41:05;14.90;54.50
33863;DHT22;20158;51.436;-2.742;2024-02-26T14:43:50;14.80;54.40
33863;DHT22;20158;51.436;-2.742;2024-02-26T14:46:36;14.70;54.30
33863;DHT22;20158;51.436;-2.742;2024-02-26T14:49:21;14.70;54.40
33863;DHT22;20158;51.436;-2.742;2024-02-26T14:52:05;14.60;54.40
33863;DHT22;20158;51.436;-2.742;2024-02-26T14:54:50;14.60;54.40
33863;DHT22;20158;51.436;-2.742;2024-02-26T14:57:35;14.50;54.30
33863;DHT22;20158;51.436;-2.742;2024-02-26T15:00:20;14.40;54.20
33863;DHT22;20158;51.436;-2.742;2024-02-26T15:03:04;14.40;54.30
33863;DHT22;20158;51.436;-2.742;2024-02-26T15:05:50;14.30;54.20
33863;DHT22;20158;51.436;-2.742;2024-02-26T15:08:34;14.30;54.30
33863;DHT22;20158;51.436;-2.742;2024-02-26T15:11:19;14.30;54.30
33863;DHT22;20158;51.436;-2.742;2024-02-26T15:14:04;14.40;54.40
33863;DHT22;20158;51.436;-2.742;2024-02-26T15:16:48;14.40;54.30
33863;DHT22;20158;51.436;-2.742;2024-02-26T15:19:33;14.50;54.40
33863;DHT22;20158;51.436;-2.742;2024-02-26T15:22:17;14.50;54.30
33863;DHT22;20158;51.436;-2.742;2024-02-26T15:25:02;14.50;54.20
33863;DHT22;20158;51.436;-2.742;2024-02-26T15:27:47;14.50;54.10
33863;DHT22;20158;51.436;-2.742;2024-02-26T15:30:32;14.50;54.10
33863;DHT22;20158;51.436;-2.742;2024-02-26T15:33:17;14.50;54.10
33863;DHT22;20158;51.436;-2.742;2024-02-26T15:36:02;14.50;54.10
33863;DHT22;20158;51.436;-2.742;2024-02-26T15:38:47;14.50;54.00
33863;DHT22;20158;51.436;-2.742;2024-02-26T15:41:31;14.50;54.00
33863;DHT22;20158;51.436;-2.742;2024-02-26T15:44:16;14.50;54.00
33863;DHT22;20158;51.436;-2.742;2024-02-26T15:47:01;14.50;54.00
33863;DHT22;20158;51.436;-2.742;2024-02-26T15:49:46;14.50;54.00
33863;DHT22;20158;51.436;-2.742;2024-02-26T15:52:31;14.40;53.70
33863;DHT22;20158;51.436;-2.742;2024-02-26T15:55:16;14.40;53.70
33863;DHT22;20158;51.436;-2.742;2024-02-26T15:58:01;14.40;53.70
33863;DHT22;20158;51.436;-2.742;2024-02-26T16:00:46;14.40;53.70
33863;DHT22;20158;51.436;-2.742;2024-02-26T16:03:35;14.40;53.90
33863;DHT22;20158;51.436;-2.742;2024-02-26T16:06:26;14.30;53.80
33863;DHT22;20158;51.436;-2.742;2024-02-26T16:09:12;14.30;53.80
33863;DHT22;20158;51.436;-2.742;2024-02-26T16:11:58;14.20;53.70
33863;DHT22;20158;51.436;-2.742;2024-02-26T16:14:52;14.30;53.90
33863;DHT22;20158;51.436;-2.742;2024-02-26T16:17:40;14.20;53.50
33863;DHT22;20158;51.436;-2.742;2024-02-26T16:20:31;14.20;53.60
33863;DHT22;20158;51.436;-2.742;2024-02-26T16:23:17;14.10;53.50
33863;DHT22;20158;51.436;-2.742;2024-02-26T16:26:02;14.00;53.40
33863;DHT22;20158;51.436;-2.742;2024-02-26T16:28:46;14.00;53.50
33863;DHT22;20158;51.436;-2.742;2024-02-26T16:31:31;13.90;53.40
33863;DHT22;20158;51.436;-2.742;2024-02-26T16:34:16;13.90;53.50
33863;DHT22;20158;51.436;-2.742;2024-02-26T16:37:09;13.80;53.30
33863;DHT22;20158;51.436;-2.742;2024-02-26T16:39:54;13.80;53.30
33863;DHT22;20158;51.436;-2.742;2024-02-26T16:42:42;13.70;53.40
33863;DHT22;20158;51.436;-2.742;2024-02-26T16:45:26;13.70;53.60
33863;DHT22;20158;51.436;-2.742;2024-02-26T16:48:11;13.60;53.50
33863;DHT22;20158;51.436;-2.742;2024-02-26T16:50:56;13.50;53.40
33863;DHT22;20158;51.436;-2.742;2024-02-26T16:53:40;13.50;53.50
33863;DHT22;20158;51.436;-2.742;2024-02-26T16:56:25;13.40;53.40
33863;DHT22;20158;51.436;-2.742;2024-02-26T16:59:09;13.40;53.60
33863;DHT22;20158;51.436;-2.742;2024-02-26T17:01:54;13.40;53.60
33863;DHT22;20158;51.436;-2.742;2024-02-26T17:04:39;13.30;53.40
33863;DHT22;20158;51.436;-2.742;2024-02-26T17:07:24;13.20;53.30
33863;DHT22;20158;51.436;-2.742;2024-02-26T17:10:09;13.20;53.40
33863;DHT22;20158;51.436;-2.742;2024-02-26T17:12:53;13.20;53.50
33863;DHT22;20158;51.436;-2.742;2024-02-26T17:15:39;13.10;53.30
33863;DHT22;20158;51.436;-2.742;2024-02-26T17:18:24;13.00;53.20
33863;DHT22;20158;51.436;-2.742;2024-02-26T17:21:08;13.00;53.40